PWSweather.com
Personal Weather Stations
Station Observations
ITROMSHA6
HarstadNO 9407

HarstadNO 9407

Lat: 68.7814767, Lon: 16.5297091

Elevation: 145

Station Type: Davis Vantage Pro2

High Low Average
Temperature 56.6°F13.7°C 40.2°F4.6°C 50.3°F10.2°C
Dew Point 38.3°F3.5°C 30.6°F-0.8°C 34.1°F1.2°C
Winds 13.0 mph 20.9 kmh Calm Calm 4.0 mph S6.4 kmh S
Wind Gusts 21.0 mph33.8 kmh -- 2.0 mph3.2 kmh
Humidity 74% 38% 55%
Pressure 29.92 in1013.2 mb 29.76 in1007.8 mb -
Precipitation 0.00 in0.0 mm - -
Hour Temp Dew Point Humidity Winds Wind Gusts Pressure Precip Precip Rate Daily Precip Total
12:00 AM 40.2°F4.6°C 30.6°F-0.8°C 68% 4.0 mph WSW6.4 kmh WSW -- 29.92 in1013.2 mb 0.00 in0.0 mm 0.00 in0.0 mm 0.00 in0.0 mm
12:05 AM 40.6°F4.8°C 30.9°F-0.6°C 68% 3.0 mph WSW4.8 kmh WSW -- 29.92 in1013.2 mb 0.00 in0.0 mm 0.00 in0.0 mm 0.00 in0.0 mm
12:10 AM 40.7°F4.8°C 30.6°F-0.8°C 67% 1.0 mph WSW1.6 kmh WSW 5.0 mph8.0 kmh 29.92 in1013.2 mb 0.00 in0.0 mm 0.00 in0.0 mm 0.00 in0.0 mm
12:15 AM 41.1°F5.1°C 31.1°F-0.5°C 67% Calm Calm -- 29.92 in1013.2 mb 0.00 in0.0 mm 0.00 in0.0 mm 0.00 in0.0 mm
12:20 AM 41.4°F5.2°C 30.9°F-0.6°C 66% 1.0 mph WSW1.6 kmh WSW -- 29.92 in1013.2 mb 0.00 in0.0 mm 0.00 in0.0 mm 0.00 in0.0 mm
12:25 AM 42.0°F5.6°C 31.6°F-0.2°C 66% 3.0 mph WSW4.8 kmh WSW -- 29.92 in1013.2 mb 0.00 in0.0 mm 0.00 in0.0 mm 0.00 in0.0 mm
12:30 AM 42.7°F5.9°C 31.6°F-0.2°C 65% 2.0 mph WSW3.2 kmh WSW -- 29.91 in1012.9 mb 0.00 in0.0 mm 0.00 in0.0 mm 0.00 in0.0 mm
12:35 AM 43.6°F6.4°C 32.9°F0.5°C 66% 1.0 mph WSW1.6 kmh WSW 4.0 mph6.4 kmh 29.91 in1012.9 mb 0.00 in0.0 mm 0.00 in0.0 mm 0.00 in0.0 mm
12:40 AM 44.7°F7.1°C 33.8°F1.0°C 65% 3.0 mph WSW4.8 kmh WSW -- 29.91 in1012.9 mb 0.00 in0.0 mm 0.00 in0.0 mm 0.00 in0.0 mm
12:45 AM 45.2°F7.3°C 33.6°F0.9°C 64% 3.0 mph SW4.8 kmh SW -- 29.91 in1012.9 mb 0.00 in0.0 mm 0.00 in0.0 mm 0.00 in0.0 mm
12:50 AM 45.4°F7.4°C 33.8°F1.0°C 64% 2.0 mph SW3.2 kmh SW -- 29.91 in1012.9 mb 0.00 in0.0 mm 0.00 in0.0 mm 0.00 in0.0 mm
12:55 AM 45.1°F7.3°C 33.6°F0.9°C 64% 2.0 mph SW3.2 kmh SW -- 29.91 in1012.9 mb 0.00 in0.0 mm 0.00 in0.0 mm 0.00 in0.0 mm
01:00 AM 44.7°F7.1°C 33.8°F1.0°C 65% Calm Calm 3.0 mph4.8 kmh 29.91 in1012.9 mb 0.00 in0.0 mm 0.00 in0.0 mm 0.00 in0.0 mm
01:05 AM 44.1°F6.7°C 33.4°F0.8°C 66% 1.0 mph SW1.6 kmh SW -- 29.91 in1012.9 mb 0.00 in0.0 mm 0.00 in0.0 mm 0.00 in0.0 mm
01:10 AM 43.5°F6.4°C 33.6°F0.9°C 68% 3.0 mph SW4.8 kmh SW -- 29.91 in1012.9 mb 0.00 in0.0 mm 0.00 in0.0 mm 0.00 in0.0 mm
01:15 AM 43.6°F6.4°C 33.6°F0.9°C 68% 4.0 mph SW6.4 kmh SW -- 29.91 in1012.9 mb 0.00 in0.0 mm 0.00 in0.0 mm 0.00 in0.0 mm
01:20 AM 43.7°F6.5°C 33.8°F1.0°C 68% 3.0 mph SW4.8 kmh SW -- 29.91 in1012.9 mb 0.00 in0.0 mm 0.00 in0.0 mm 0.00 in0.0 mm
01:25 AM 43.7°F6.5°C 33.8°F1.0°C 68% 3.0 mph SW4.8 kmh SW 4.0 mph6.4 kmh 29.91 in1012.9 mb 0.00 in0.0 mm 0.00 in0.0 mm 0.00 in0.0 mm
01:30 AM 43.5°F6.4°C 33.6°F0.9°C 68% Calm Calm -- 29.91 in1012.9 mb 0.00 in0.0 mm 0.00 in0.0 mm 0.00 in0.0 mm
01:35 AM 43.2°F6.2°C 33.6°F0.9°C 69% 2.0 mph WSW3.2 kmh WSW -- 29.91 in1012.9 mb 0.00 in0.0 mm 0.00 in0.0 mm 0.00 in0.0 mm
01:40 AM 43.0°F6.1°C 33.4°F0.8°C 69% 4.0 mph WSW6.4 kmh WSW -- 29.91 in1012.9 mb 0.00 in0.0 mm 0.00 in0.0 mm 0.00 in0.0 mm
01:45 AM 42.5°F5.8°C 33.8°F1.0°C 71% 5.0 mph W8.0 kmh W -- 29.91 in1012.9 mb 0.00 in0.0 mm 0.00 in0.0 mm 0.00 in0.0 mm
01:50 AM 42.4°F5.8°C 33.8°F1.0°C 71% 4.0 mph WSW6.4 kmh WSW 6.0 mph9.7 kmh 29.91 in1012.9 mb 0.00 in0.0 mm 0.00 in0.0 mm 0.00 in0.0 mm
01:55 AM 42.0°F5.6°C 33.8°F1.0°C 72% 3.0 mph WSW4.8 kmh WSW -- 29.91 in1012.9 mb 0.00 in0.0 mm 0.00 in0.0 mm 0.00 in0.0 mm
02:00 AM 42.0°F5.6°C 33.8°F1.0°C 72% 3.0 mph WSW4.8 kmh WSW -- 29.91 in1012.9 mb 0.00 in0.0 mm 0.00 in0.0 mm 0.00 in0.0 mm
02:05 AM 42.0°F5.6°C 33.8°F1.0°C 72% Calm Calm -- 29.91 in1012.9 mb 0.00 in0.0 mm 0.00 in0.0 mm 0.00 in0.0 mm
02:10 AM 41.8°F5.4°C 33.8°F1.0°C 73% 3.0 mph WSW4.8 kmh WSW -- 29.91 in1012.9 mb 0.00 in0.0 mm 0.00 in0.0 mm 0.00 in0.0 mm
02:15 AM 41.6°F5.3°C 33.6°F0.9°C 73% 3.0 mph SW4.8 kmh SW 4.0 mph6.4 kmh 29.91 in1012.9 mb 0.00 in0.0 mm 0.00 in0.0 mm 0.00 in0.0 mm
02:20 AM 42.1°F5.6°C 34.3°F1.3°C 74% 3.0 mph SW4.8 kmh SW -- 29.91 in1012.9 mb 0.00 in0.0 mm 0.00 in0.0 mm 0.00 in0.0 mm
02:25 AM 42.8°F6.0°C 34.7°F1.5°C 73% Calm Calm -- 29.91 in1012.9 mb 0.00 in0.0 mm 0.00 in0.0 mm 0.00 in0.0 mm
02:30 AM 44.7°F7.1°C 35.2°F1.8°C 69% Calm Calm -- 29.91 in1012.9 mb 0.00 in0.0 mm 0.00 in0.0 mm 0.00 in0.0 mm
02:35 AM 45.4°F7.4°C 35.1°F1.7°C 67% 1.0 mph SW1.6 kmh SW -- 29.91 in1012.9 mb 0.00 in0.0 mm 0.00 in0.0 mm 0.00 in0.0 mm
02:40 AM 45.8°F7.7°C 35.2°F1.8°C 66% 2.0 mph W3.2 kmh W 4.0 mph6.4 kmh 29.91 in1012.9 mb 0.00 in0.0 mm 0.00 in0.0 mm 0.00 in0.0 mm
02:45 AM 46.8°F8.2°C 35.2°F1.8°C 64% Calm Calm -- 29.91 in1012.9 mb 0.00 in0.0 mm 0.00 in0.0 mm 0.00 in0.0 mm
02:50 AM 46.9°F8.3°C 35.1°F1.7°C 63% 3.0 mph WSW4.8 kmh WSW -- 29.90 in1012.5 mb 0.00 in0.0 mm 0.00 in0.0 mm 0.00 in0.0 mm
02:55 AM 47.0°F8.3°C 35.1°F1.7°C 63% 1.0 mph WSW1.6 kmh WSW -- 29.90 in1012.5 mb 0.00 in0.0 mm 0.00 in0.0 mm 0.00 in0.0 mm
03:00 AM 47.2°F8.4°C 34.7°F1.5°C 62% 1.0 mph W1.6 kmh W -- 29.90 in1012.5 mb 0.00 in0.0 mm 0.00 in0.0 mm 0.00 in0.0 mm
03:05 AM 47.1°F8.4°C 35.2°F1.8°C 63% Calm Calm 4.0 mph6.4 kmh 29.90 in1012.5 mb 0.00 in0.0 mm 0.00 in0.0 mm 0.00 in0.0 mm
03:10 AM 47.0°F8.3°C 35.1°F1.7°C 63% 2.0 mph WSW3.2 kmh WSW -- 29.90 in1012.5 mb 0.00 in0.0 mm 0.00 in0.0 mm 0.00 in0.0 mm
03:15 AM 46.9°F8.3°C 35.1°F1.7°C 63% 5.0 mph WSW8.0 kmh WSW -- 29.90 in1012.5 mb 0.00 in0.0 mm 0.00 in0.0 mm 0.00 in0.0 mm
03:20 AM 46.8°F8.2°C 34.9°F1.6°C 63% 1.0 mph WSW1.6 kmh WSW -- 29.90 in1012.5 mb 0.00 in0.0 mm 0.00 in0.0 mm 0.00 in0.0 mm
03:25 AM 46.8°F8.2°C 34.9°F1.6°C 63% 4.0 mph WSW6.4 kmh WSW -- 29.89 in1012.2 mb 0.00 in0.0 mm 0.00 in0.0 mm 0.00 in0.0 mm
03:30 AM 47.0°F8.3°C 35.1°F1.7°C 63% 3.0 mph WSW4.8 kmh WSW 6.0 mph9.7 kmh 29.89 in1012.2 mb 0.00 in0.0 mm 0.00 in0.0 mm 0.00 in0.0 mm
03:35 AM 47.0°F8.3°C 35.1°F1.7°C 63% 3.0 mph SW4.8 kmh SW -- 29.89 in1012.2 mb 0.00 in0.0 mm 0.00 in0.0 mm 0.00 in0.0 mm
03:40 AM 47.0°F8.3°C 35.1°F1.7°C 63% 4.0 mph WSW6.4 kmh WSW -- 29.89 in1012.2 mb 0.00 in0.0 mm 0.00 in0.0 mm 0.00 in0.0 mm
03:45 AM 47.1°F8.4°C 35.2°F1.8°C 63% 4.0 mph SSW6.4 kmh SSW -- 29.89 in1012.2 mb 0.00 in0.0 mm 0.00 in0.0 mm 0.00 in0.0 mm
03:50 AM 47.1°F8.4°C 35.2°F1.8°C 63% 5.0 mph WSW8.0 kmh WSW -- 29.89 in1012.2 mb 0.00 in0.0 mm 0.00 in0.0 mm 0.00 in0.0 mm
03:55 AM 47.1°F8.4°C 35.2°F1.8°C 63% 4.0 mph WSW6.4 kmh WSW 6.0 mph9.7 kmh 29.89 in1012.2 mb 0.00 in0.0 mm 0.00 in0.0 mm 0.00 in0.0 mm
04:00 AM 47.1°F8.4°C 35.2°F1.8°C 63% 3.0 mph SW4.8 kmh SW -- 29.89 in1012.2 mb 0.00 in0.0 mm 0.00 in0.0 mm 0.00 in0.0 mm
04:05 AM 47.2°F8.4°C 35.2°F1.8°C 63% 5.0 mph WSW8.0 kmh WSW -- 29.89 in1012.2 mb 0.00 in0.0 mm 0.00 in0.0 mm 0.00 in0.0 mm
04:10 AM 47.2°F8.4°C 35.2°F1.8°C 63% 3.0 mph SW4.8 kmh SW -- 29.89 in1012.2 mb 0.00 in0.0 mm 0.00 in0.0 mm 0.00 in0.0 mm
04:15 AM 47.2°F8.4°C 34.7°F1.5°C 62% Calm Calm -- 29.89 in1012.2 mb 0.00 in0.0 mm 0.00 in0.0 mm 0.00 in0.0 mm
04:20 AM 47.2°F8.4°C 34.7°F1.5°C 62% Calm Calm 3.0 mph4.8 kmh 29.89 in1012.2 mb 0.00 in0.0 mm 0.00 in0.0 mm 0.00 in0.0 mm
04:25 AM 47.2°F8.4°C 34.7°F1.5°C 62% 1.0 mph SW1.6 kmh SW -- 29.89 in1012.2 mb 0.00 in0.0 mm 0.00 in0.0 mm 0.00 in0.0 mm
04:30 AM 47.2°F8.4°C 34.7°F1.5°C 62% 1.0 mph SW1.6 kmh SW -- 29.89 in1012.2 mb 0.00 in0.0 mm 0.00 in0.0 mm 0.00 in0.0 mm
04:35 AM 47.2°F8.4°C 35.2°F1.8°C 63% 2.0 mph SW3.2 kmh SW -- 29.88 in1011.9 mb 0.00 in0.0 mm 0.00 in0.0 mm 0.00 in0.0 mm
04:40 AM 46.8°F8.2°C 34.9°F1.6°C 63% 4.0 mph SSW6.4 kmh SSW -- 29.89 in1012.2 mb 0.00 in0.0 mm 0.00 in0.0 mm 0.00 in0.0 mm
04:45 AM 47.1°F8.4°C 34.7°F1.5°C 62% 1.0 mph SW1.6 kmh SW 8.0 mph12.9 kmh 29.88 in1011.9 mb 0.00 in0.0 mm 0.00 in0.0 mm 0.00 in0.0 mm
04:50 AM 47.4°F8.6°C 35.1°F1.7°C 62% Calm Calm -- 29.89 in1012.2 mb 0.00 in0.0 mm 0.00 in0.0 mm 0.00 in0.0 mm
04:55 AM 47.6°F8.7°C 34.9°F1.6°C 61% 2.0 mph WSW3.2 kmh WSW -- 29.88 in1011.9 mb 0.00 in0.0 mm 0.00 in0.0 mm 0.00 in0.0 mm
05:00 AM 47.7°F8.7°C 34.9°F1.6°C 61% Calm Calm -- 29.88 in1011.9 mb 0.00 in0.0 mm 0.00 in0.0 mm 0.00 in0.0 mm
05:05 AM 47.9°F8.8°C 35.1°F1.7°C 61% 2.0 mph S3.2 kmh S -- 29.88 in1011.9 mb 0.00 in0.0 mm 0.00 in0.0 mm 0.00 in0.0 mm
05:10 AM 47.8°F8.8°C 35.1°F1.7°C 61% 2.0 mph WSW3.2 kmh WSW 10.0 mph16.1 kmh 29.88 in1011.9 mb 0.00 in0.0 mm 0.00 in0.0 mm 0.00 in0.0 mm
05:15 AM 47.9°F8.8°C 35.1°F1.7°C 61% 5.0 mph WSW8.0 kmh WSW -- 29.88 in1011.9 mb 0.00 in0.0 mm 0.00 in0.0 mm 0.00 in0.0 mm
05:20 AM 47.9°F8.8°C 35.4°F1.9°C 62% 3.0 mph NE4.8 kmh NE -- 29.88 in1011.9 mb 0.00 in0.0 mm 0.00 in0.0 mm 0.00 in0.0 mm
05:25 AM 47.8°F8.8°C 35.8°F2.1°C 63% 2.0 mph NE3.2 kmh NE -- 29.88 in1011.9 mb 0.00 in0.0 mm 0.00 in0.0 mm 0.00 in0.0 mm
05:30 AM 47.6°F8.7°C 36.5°F2.5°C 65% 3.0 mph N4.8 kmh N -- 29.88 in1011.9 mb 0.00 in0.0 mm 0.00 in0.0 mm 0.00 in0.0 mm
05:35 AM 47.3°F8.5°C 36.5°F2.5°C 66% 6.0 mph ENE9.7 kmh ENE 8.0 mph12.9 kmh 29.88 in1011.9 mb 0.00 in0.0 mm 0.00 in0.0 mm 0.00 in0.0 mm
05:40 AM 47.2°F8.4°C 36.7°F2.6°C 67% 2.0 mph NE3.2 kmh NE -- 29.88 in1011.9 mb 0.00 in0.0 mm 0.00 in0.0 mm 0.00 in0.0 mm
05:45 AM 47.0°F8.3°C 36.9°F2.7°C 68% 3.0 mph NW4.8 kmh NW -- 29.87 in1011.5 mb 0.00 in0.0 mm 0.00 in0.0 mm 0.00 in0.0 mm
05:50 AM 47.0°F8.3°C 36.9°F2.7°C 68% 4.0 mph NE6.4 kmh NE -- 29.87 in1011.5 mb 0.00 in0.0 mm 0.00 in0.0 mm 0.00 in0.0 mm
05:55 AM 47.1°F8.4°C 37.0°F2.8°C 68% 2.0 mph NE3.2 kmh NE -- 29.87 in1011.5 mb 0.00 in0.0 mm 0.00 in0.0 mm 0.00 in0.0 mm
06:00 AM 47.2°F8.4°C 37.0°F2.8°C 68% 2.0 mph N3.2 kmh N 8.0 mph12.9 kmh 29.87 in1011.5 mb 0.00 in0.0 mm 0.00 in0.0 mm 0.00 in0.0 mm
06:05 AM 47.3°F8.5°C 37.2°F2.9°C 68% 1.0 mph E1.6 kmh E -- 29.87 in1011.5 mb 0.00 in0.0 mm 0.00 in0.0 mm 0.00 in0.0 mm
06:10 AM 47.4°F8.6°C 37.0°F2.8°C 67% 6.0 mph NNE9.7 kmh NNE -- 29.86 in1011.2 mb 0.00 in0.0 mm 0.00 in0.0 mm 0.00 in0.0 mm
06:15 AM 47.5°F8.6°C 37.0°F2.8°C 67% 7.0 mph NE11.3 kmh NE -- 29.86 in1011.2 mb 0.00 in0.0 mm 0.00 in0.0 mm 0.00 in0.0 mm
06:20 AM 47.6°F8.7°C 37.2°F2.9°C 67% 2.0 mph NE3.2 kmh NE -- 29.86 in1011.2 mb 0.00 in0.0 mm 0.00 in0.0 mm 0.00 in0.0 mm
06:25 AM 47.5°F8.6°C 37.4°F3.0°C 68% 4.0 mph N6.4 kmh N 11.0 mph17.7 kmh 29.86 in1011.2 mb 0.00 in0.0 mm 0.00 in0.0 mm 0.00 in0.0 mm
06:30 AM 47.5°F8.6°C 37.4°F3.0°C 68% 2.0 mph NNE3.2 kmh NNE -- 29.86 in1011.2 mb 0.00 in0.0 mm 0.00 in0.0 mm 0.00 in0.0 mm
06:35 AM 47.6°F8.7°C 37.2°F2.9°C 67% Calm Calm -- 29.86 in1011.2 mb 0.00 in0.0 mm 0.00 in0.0 mm 0.00 in0.0 mm
06:40 AM 47.7°F8.7°C 37.2°F2.9°C 67% 3.0 mph NE4.8 kmh NE -- 29.85 in1010.8 mb 0.00 in0.0 mm 0.00 in0.0 mm 0.00 in0.0 mm
06:45 AM 47.7°F8.7°C 37.2°F2.9°C 67% 3.0 mph NW4.8 kmh NW -- 29.85 in1010.8 mb 0.00 in0.0 mm 0.00 in0.0 mm 0.00 in0.0 mm
06:50 AM 47.9°F8.8°C 37.0°F2.8°C 66% 2.0 mph WNW3.2 kmh WNW 7.0 mph11.3 kmh 29.85 in1010.8 mb 0.00 in0.0 mm 0.00 in0.0 mm 0.00 in0.0 mm
06:55 AM 48.0°F8.9°C 37.2°F2.9°C 66% 4.0 mph WNW6.4 kmh WNW -- 29.85 in1010.8 mb 0.00 in0.0 mm 0.00 in0.0 mm 0.00 in0.0 mm
07:00 AM 48.2°F9.0°C 37.0°F2.8°C 65% 7.0 mph WSW11.3 kmh WSW -- 29.85 in1010.8 mb 0.00 in0.0 mm 0.00 in0.0 mm 0.00 in0.0 mm
07:05 AM 48.5°F9.2°C 36.9°F2.7°C 64% 3.0 mph ENE4.8 kmh ENE -- 29.85 in1010.8 mb 0.00 in0.0 mm 0.00 in0.0 mm 0.00 in0.0 mm
07:10 AM 48.7°F9.3°C 37.0°F2.8°C 64% 3.0 mph NW4.8 kmh NW -- 29.84 in1010.5 mb 0.00 in0.0 mm 0.00 in0.0 mm 0.00 in0.0 mm
07:15 AM 48.8°F9.3°C 37.0°F2.8°C 64% 3.0 mph ENE4.8 kmh ENE 11.0 mph17.7 kmh 29.85 in1010.8 mb 0.00 in0.0 mm 0.00 in0.0 mm 0.00 in0.0 mm
07:20 AM 49.0°F9.4°C 36.9°F2.7°C 63% 4.0 mph N6.4 kmh N -- 29.85 in1010.8 mb 0.00 in0.0 mm 0.00 in0.0 mm 0.00 in0.0 mm
07:25 AM 49.2°F9.6°C 37.2°F2.9°C 63% 6.0 mph NE9.7 kmh NE -- 29.85 in1010.8 mb 0.00 in0.0 mm 0.00 in0.0 mm 0.00 in0.0 mm
07:30 AM 49.2°F9.6°C 36.9°F2.7°C 62% 7.0 mph ENE11.3 kmh ENE -- 29.85 in1010.8 mb 0.00 in0.0 mm 0.00 in0.0 mm 0.00 in0.0 mm
07:35 AM 49.3°F9.6°C 36.9°F2.7°C 62% 5.0 mph SW8.0 kmh SW -- 29.84 in1010.5 mb 0.00 in0.0 mm 0.00 in0.0 mm 0.00 in0.0 mm
07:40 AM 49.4°F9.7°C 37.0°F2.8°C 62% 7.0 mph NE11.3 kmh NE 11.0 mph17.7 kmh 29.84 in1010.5 mb 0.00 in0.0 mm 0.00 in0.0 mm 0.00 in0.0 mm
07:45 AM 49.4°F9.7°C 37.0°F2.8°C 62% 2.0 mph ENE3.2 kmh ENE -- 29.84 in1010.5 mb 0.00 in0.0 mm 0.00 in0.0 mm 0.00 in0.0 mm
07:50 AM 49.5°F9.7°C 37.0°F2.8°C 62% 4.0 mph E6.4 kmh E -- 29.84 in1010.5 mb 0.00 in0.0 mm 0.00 in0.0 mm 0.00 in0.0 mm
07:55 AM 49.5°F9.7°C 36.5°F2.5°C 61% 4.0 mph WSW6.4 kmh WSW -- 29.84 in1010.5 mb 0.00 in0.0 mm 0.00 in0.0 mm 0.00 in0.0 mm
08:00 AM 49.7°F9.8°C 37.2°F2.9°C 62% 10.0 mph ENE16.1 kmh ENE -- 29.84 in1010.5 mb 0.00 in0.0 mm 0.00 in0.0 mm 0.00 in0.0 mm
08:05 AM 49.7°F9.8°C 37.2°F2.9°C 62% 8.0 mph ENE12.9 kmh ENE 11.0 mph17.7 kmh 29.84 in1010.5 mb 0.00 in0.0 mm 0.00 in0.0 mm 0.00 in0.0 mm
08:10 AM 49.7°F9.8°C 37.2°F2.9°C 62% 1.0 mph SE1.6 kmh SE -- 29.84 in1010.5 mb 0.00 in0.0 mm 0.00 in0.0 mm 0.00 in0.0 mm
08:15 AM 49.9°F9.9°C 37.4°F3.0°C 62% 5.0 mph E8.0 kmh E -- 29.84 in1010.5 mb 0.00 in0.0 mm 0.00 in0.0 mm 0.00 in0.0 mm
08:20 AM 49.7°F9.8°C 37.2°F2.9°C 62% 5.0 mph NNE8.0 kmh NNE -- 29.84 in1010.5 mb 0.00 in0.0 mm 0.00 in0.0 mm 0.00 in0.0 mm
08:25 AM 50.0°F10.0°C 37.0°F2.8°C 61% 1.0 mph NE1.6 kmh NE -- 29.84 in1010.5 mb 0.00 in0.0 mm 0.00 in0.0 mm 0.00 in0.0 mm
08:30 AM 50.3°F10.2°C 37.0°F2.8°C 60% 8.0 mph NE12.9 kmh NE 12.0 mph19.3 kmh 29.84 in1010.5 mb 0.00 in0.0 mm 0.00 in0.0 mm 0.00 in0.0 mm
08:35 AM 50.5°F10.3°C 37.2°F2.9°C 60% 6.0 mph NE9.7 kmh NE -- 29.83 in1010.2 mb 0.00 in0.0 mm 0.00 in0.0 mm 0.00 in0.0 mm
08:40 AM 50.5°F10.3°C 37.2°F2.9°C 60% 3.0 mph ENE4.8 kmh ENE -- 29.83 in1010.2 mb 0.00 in0.0 mm 0.00 in0.0 mm 0.00 in0.0 mm
08:45 AM 51.1°F10.6°C 37.2°F2.9°C 59% 3.0 mph N4.8 kmh N -- 29.83 in1010.2 mb 0.00 in0.0 mm 0.00 in0.0 mm 0.00 in0.0 mm
08:50 AM 51.9°F11.1°C 37.6°F3.1°C 58% 10.0 mph NE16.1 kmh NE -- 29.83 in1010.2 mb 0.00 in0.0 mm 0.00 in0.0 mm 0.00 in0.0 mm
08:55 AM 51.8°F11.0°C 37.6°F3.1°C 58% 7.0 mph E11.3 kmh E 15.0 mph24.1 kmh 29.83 in1010.2 mb 0.00 in0.0 mm 0.00 in0.0 mm 0.00 in0.0 mm
09:00 AM 52.1°F11.2°C 37.8°F3.2°C 58% 4.0 mph ENE6.4 kmh ENE -- 29.83 in1010.2 mb 0.00 in0.0 mm 0.00 in0.0 mm 0.00 in0.0 mm
09:05 AM 52.3°F11.3°C 37.6°F3.1°C 57% 5.0 mph ENE8.0 kmh ENE -- 29.82 in1009.8 mb 0.00 in0.0 mm 0.00 in0.0 mm 0.00 in0.0 mm
09:10 AM 52.7°F11.5°C 37.4°F3.0°C 56% 6.0 mph NE9.7 kmh NE -- 29.83 in1010.2 mb 0.00 in0.0 mm 0.00 in0.0 mm 0.00 in0.0 mm
09:15 AM 52.9°F11.6°C 38.1°F3.4°C 57% 4.0 mph E6.4 kmh E -- 29.83 in1010.2 mb 0.00 in0.0 mm 0.00 in0.0 mm 0.00 in0.0 mm
09:20 AM 53.0°F11.7°C 38.3°F3.5°C 57% 7.0 mph ENE11.3 kmh ENE 13.0 mph20.9 kmh 29.82 in1009.8 mb 0.00 in0.0 mm 0.00 in0.0 mm 0.00 in0.0 mm
09:25 AM 52.8°F11.6°C 37.6°F3.1°C 56% 6.0 mph NE9.7 kmh NE -- 29.82 in1009.8 mb 0.00 in0.0 mm 0.00 in0.0 mm 0.00 in0.0 mm
09:30 AM 52.6°F11.4°C 37.2°F2.9°C 56% 4.0 mph ENE6.4 kmh ENE -- 29.82 in1009.8 mb 0.00 in0.0 mm 0.00 in0.0 mm 0.00 in0.0 mm
09:35 AM 52.9°F11.6°C 37.6°F3.1°C 56% 10.0 mph NE16.1 kmh NE -- 29.82 in1009.8 mb 0.00 in0.0 mm 0.00 in0.0 mm 0.00 in0.0 mm
09:40 AM 52.7°F11.5°C 37.4°F3.0°C 56% 8.0 mph NE12.9 kmh NE -- 29.82 in1009.8 mb 0.00 in0.0 mm 0.00 in0.0 mm 0.00 in0.0 mm
09:45 AM 52.5°F11.4°C 36.9°F2.7°C 55% 4.0 mph NNW6.4 kmh NNW 11.0 mph17.7 kmh 29.82 in1009.8 mb 0.00 in0.0 mm 0.00 in0.0 mm 0.00 in0.0 mm
09:50 AM 52.7°F11.5°C 37.0°F2.8°C 55% 2.0 mph NNE3.2 kmh NNE -- 29.82 in1009.8 mb 0.00 in0.0 mm 0.00 in0.0 mm 0.00 in0.0 mm
09:55 AM 53.6°F12.0°C 36.3°F2.4°C 52% 6.0 mph E9.7 kmh E -- 29.82 in1009.8 mb 0.00 in0.0 mm 0.00 in0.0 mm 0.00 in0.0 mm
10:00 AM 54.3°F12.4°C 36.1°F2.3°C 50% 2.0 mph SE3.2 kmh SE -- 29.82 in1009.8 mb 0.00 in0.0 mm 0.00 in0.0 mm 0.00 in0.0 mm
10:05 AM 54.9°F12.7°C 36.1°F2.3°C 49% 2.0 mph WSW3.2 kmh WSW -- 29.82 in1009.8 mb 0.00 in0.0 mm 0.00 in0.0 mm 0.00 in0.0 mm
10:10 AM 55.1°F12.8°C 35.2°F1.8°C 47% 2.0 mph SSW3.2 kmh SSW 18.0 mph29.0 kmh 29.82 in1009.8 mb 0.00 in0.0 mm 0.00 in0.0 mm 0.00 in0.0 mm
10:15 AM 55.3°F12.9°C 35.4°F1.9°C 47% 4.0 mph E6.4 kmh E -- 29.82 in1009.8 mb 0.00 in0.0 mm 0.00 in0.0 mm 0.00 in0.0 mm
10:20 AM 55.2°F12.9°C 35.4°F1.9°C 47% 6.0 mph ENE9.7 kmh ENE -- 29.83 in1010.2 mb 0.00 in0.0 mm 0.00 in0.0 mm 0.00 in0.0 mm
10:25 AM 55.0°F12.8°C 35.2°F1.8°C 47% 8.0 mph SW12.9 kmh SW -- 29.82 in1009.8 mb 0.00 in0.0 mm 0.00 in0.0 mm 0.00 in0.0 mm
10:30 AM 54.8°F12.7°C 35.1°F1.7°C 47% 3.0 mph WSW4.8 kmh WSW -- 29.82 in1009.8 mb 0.00 in0.0 mm 0.00 in0.0 mm 0.00 in0.0 mm
10:35 AM 54.8°F12.7°C 35.1°F1.7°C 47% 1.0 mph WSW1.6 kmh WSW 12.0 mph19.3 kmh 29.82 in1009.8 mb 0.00 in0.0 mm 0.00 in0.0 mm 0.00 in0.0 mm
10:40 AM 54.8°F12.7°C 35.1°F1.7°C 47% 6.0 mph S9.7 kmh S -- 29.82 in1009.8 mb 0.00 in0.0 mm 0.00 in0.0 mm 0.00 in0.0 mm
10:45 AM 54.8°F12.7°C 35.1°F1.7°C 47% 7.0 mph W11.3 kmh W -- 29.82 in1009.8 mb 0.00 in0.0 mm 0.00 in0.0 mm 0.00 in0.0 mm
10:50 AM 54.7°F12.6°C 34.3°F1.3°C 46% 10.0 mph SW16.1 kmh SW -- 29.82 in1009.8 mb 0.00 in0.0 mm 0.00 in0.0 mm 0.00 in0.0 mm
10:55 AM 54.5°F12.5°C 34.2°F1.2°C 46% 4.0 mph SW6.4 kmh SW -- 29.82 in1009.8 mb 0.00 in0.0 mm 0.00 in0.0 mm 0.00 in0.0 mm
11:00 AM 54.5°F12.5°C 34.2°F1.2°C 46% 8.0 mph SW12.9 kmh SW 19.0 mph30.6 kmh 29.82 in1009.8 mb 0.00 in0.0 mm 0.00 in0.0 mm 0.00 in0.0 mm
11:05 AM 54.5°F12.5°C 34.7°F1.5°C 47% 4.0 mph W6.4 kmh W -- 29.82 in1009.8 mb 0.00 in0.0 mm 0.00 in0.0 mm 0.00 in0.0 mm
11:10 AM 54.7°F12.6°C 34.9°F1.6°C 47% 2.0 mph SSW3.2 kmh SSW -- 29.82 in1009.8 mb 0.00 in0.0 mm 0.00 in0.0 mm 0.00 in0.0 mm
11:15 AM 54.8°F12.7°C 34.5°F1.4°C 46% 4.0 mph WNW6.4 kmh WNW -- 29.82 in1009.8 mb 0.00 in0.0 mm 0.00 in0.0 mm 0.00 in0.0 mm
11:20 AM 54.8°F12.7°C 34.5°F1.4°C 46% 3.0 mph ENE4.8 kmh ENE -- 29.82 in1009.8 mb 0.00 in0.0 mm 0.00 in0.0 mm 0.00 in0.0 mm
11:25 AM 54.8°F12.7°C 34.5°F1.4°C 46% Calm Calm 12.0 mph19.3 kmh 29.82 in1009.8 mb 0.00 in0.0 mm 0.00 in0.0 mm 0.00 in0.0 mm
11:30 AM 54.8°F12.7°C 34.5°F1.4°C 46% 5.0 mph ENE8.0 kmh ENE -- 29.82 in1009.8 mb 0.00 in0.0 mm 0.00 in0.0 mm 0.00 in0.0 mm
11:35 AM 55.0°F12.8°C 34.7°F1.5°C 46% 4.0 mph N6.4 kmh N -- 29.82 in1009.8 mb 0.00 in0.0 mm 0.00 in0.0 mm 0.00 in0.0 mm
11:40 AM 54.8°F12.7°C 34.0°F1.1°C 45% 12.0 mph ENE19.3 kmh ENE -- 29.82 in1009.8 mb 0.00 in0.0 mm 0.00 in0.0 mm 0.00 in0.0 mm
11:45 AM 54.8°F12.7°C 34.5°F1.4°C 46% 3.0 mph W4.8 kmh W -- 29.82 in1009.8 mb 0.00 in0.0 mm 0.00 in0.0 mm 0.00 in0.0 mm
11:50 AM 54.8°F12.7°C 34.0°F1.1°C 45% 6.0 mph NE9.7 kmh NE 14.0 mph22.5 kmh 29.82 in1009.8 mb 0.00 in0.0 mm 0.00 in0.0 mm 0.00 in0.0 mm
11:55 AM 54.9°F12.7°C 34.0°F1.1°C 45% 5.0 mph ENE8.0 kmh ENE -- 29.82 in1009.8 mb 0.00 in0.0 mm 0.00 in0.0 mm 0.00 in0.0 mm
12:00 PM 55.1°F12.8°C 34.2°F1.2°C 45% 2.0 mph N3.2 kmh N -- 29.82 in1009.8 mb 0.00 in0.0 mm 0.00 in0.0 mm 0.00 in0.0 mm
12:05 PM 55.1°F12.8°C 34.2°F1.2°C 45% Calm Calm -- 29.82 in1009.8 mb 0.00 in0.0 mm 0.00 in0.0 mm 0.00 in0.0 mm
12:10 PM 55.2°F12.9°C 34.3°F1.3°C 45% 3.0 mph NE4.8 kmh NE -- 29.82 in1009.8 mb 0.00 in0.0 mm 0.00 in0.0 mm 0.00 in0.0 mm
12:15 PM 55.2°F12.9°C 34.3°F1.3°C 45% 4.0 mph NNW6.4 kmh NNW 10.0 mph16.1 kmh 29.82 in1009.8 mb 0.00 in0.0 mm 0.00 in0.0 mm 0.00 in0.0 mm
12:20 PM 55.2°F12.9°C 34.3°F1.3°C 45% 5.0 mph N8.0 kmh N -- 29.82 in1009.8 mb 0.00 in0.0 mm 0.00 in0.0 mm 0.00 in0.0 mm
12:25 PM 55.1°F12.8°C 34.2°F1.2°C 45% 1.0 mph E1.6 kmh E -- 29.82 in1009.8 mb 0.00 in0.0 mm 0.00 in0.0 mm 0.00 in0.0 mm
12:30 PM 55.1°F12.8°C 33.4°F0.8°C 44% 9.0 mph NNE14.5 kmh NNE -- 29.81 in1009.5 mb 0.00 in0.0 mm 0.00 in0.0 mm 0.00 in0.0 mm
12:35 PM 55.1°F12.8°C 34.2°F1.2°C 45% 1.0 mph E1.6 kmh E -- 29.82 in1009.8 mb 0.00 in0.0 mm 0.00 in0.0 mm 0.00 in0.0 mm
12:40 PM 55.0°F12.8°C 33.4°F0.8°C 44% 13.0 mph E20.9 kmh E 18.0 mph29.0 kmh 29.82 in1009.8 mb 0.00 in0.0 mm 0.00 in0.0 mm 0.00 in0.0 mm
12:45 PM 55.1°F12.8°C 34.2°F1.2°C 45% 6.0 mph NE9.7 kmh NE -- 29.82 in1009.8 mb 0.00 in0.0 mm 0.00 in0.0 mm 0.00 in0.0 mm
12:50 PM 55.2°F12.9°C 33.6°F0.9°C 44% 2.0 mph SSW3.2 kmh SSW -- 29.82 in1009.8 mb 0.00 in0.0 mm 0.00 in0.0 mm 0.00 in0.0 mm
12:55 PM 55.2°F12.9°C 33.6°F0.9°C 44% 1.0 mph NNW1.6 kmh NNW -- 29.82 in1009.8 mb 0.00 in0.0 mm 0.00 in0.0 mm 0.00 in0.0 mm
01:00 PM 55.3°F12.9°C 33.6°F0.9°C 44% 8.0 mph E12.9 kmh E -- 29.82 in1009.8 mb 0.00 in0.0 mm 0.00 in0.0 mm 0.00 in0.0 mm
01:05 PM 55.2°F12.9°C 33.6°F0.9°C 44% 1.0 mph E1.6 kmh E 15.0 mph24.1 kmh 29.82 in1009.8 mb 0.00 in0.0 mm 0.00 in0.0 mm 0.00 in0.0 mm
01:10 PM 55.1°F12.8°C 32.9°F0.5°C 43% 8.0 mph NNE12.9 kmh NNE -- 29.82 in1009.8 mb 0.00 in0.0 mm 0.00 in0.0 mm 0.00 in0.0 mm
01:15 PM 55.3°F12.9°C 33.1°F0.6°C 43% 7.0 mph ENE11.3 kmh ENE -- 29.82 in1009.8 mb 0.00 in0.0 mm 0.00 in0.0 mm 0.00 in0.0 mm
01:20 PM 55.3°F12.9°C 33.1°F0.6°C 43% 2.0 mph NNE3.2 kmh NNE -- 29.82 in1009.8 mb 0.00 in0.0 mm 0.00 in0.0 mm 0.00 in0.0 mm
01:25 PM 55.2°F12.9°C 33.1°F0.6°C 43% 6.0 mph ENE9.7 kmh ENE -- 29.81 in1009.5 mb 0.00 in0.0 mm 0.00 in0.0 mm 0.00 in0.0 mm
01:30 PM 55.2°F12.9°C 33.1°F0.6°C 43% 3.0 mph NNE4.8 kmh NNE 15.0 mph24.1 kmh 29.81 in1009.5 mb 0.00 in0.0 mm 0.00 in0.0 mm 0.00 in0.0 mm
01:35 PM 55.3°F12.9°C 33.1°F0.6°C 43% 2.0 mph NW3.2 kmh NW -- 29.81 in1009.5 mb 0.00 in0.0 mm 0.00 in0.0 mm 0.00 in0.0 mm
01:40 PM 55.4°F13.0°C 33.3°F0.7°C 43% 3.0 mph NE4.8 kmh NE -- 29.81 in1009.5 mb 0.00 in0.0 mm 0.00 in0.0 mm 0.00 in0.0 mm
01:45 PM 55.4°F13.0°C 32.7°F0.4°C 42% 9.0 mph NE14.5 kmh NE -- 29.81 in1009.5 mb 0.00 in0.0 mm 0.00 in0.0 mm 0.00 in0.0 mm
01:50 PM 55.5°F13.1°C 32.9°F0.5°C 42% 7.0 mph ENE11.3 kmh ENE -- 29.81 in1009.5 mb 0.00 in0.0 mm 0.00 in0.0 mm 0.00 in0.0 mm
01:55 PM 55.8°F13.2°C 33.1°F0.6°C 42% 1.0 mph W1.6 kmh W 18.0 mph29.0 kmh 29.81 in1009.5 mb 0.00 in0.0 mm 0.00 in0.0 mm 0.00 in0.0 mm
02:00 PM 55.9°F13.3°C 32.5°F0.3°C 41% 5.0 mph NE8.0 kmh NE -- 29.81 in1009.5 mb 0.00 in0.0 mm 0.00 in0.0 mm 0.00 in0.0 mm
02:05 PM 55.8°F13.2°C 32.4°F0.2°C 41% 3.0 mph NE4.8 kmh NE -- 29.81 in1009.5 mb 0.00 in0.0 mm 0.00 in0.0 mm 0.00 in0.0 mm
02:10 PM 55.9°F13.3°C 32.5°F0.3°C 41% 7.0 mph N11.3 kmh N -- 29.81 in1009.5 mb 0.00 in0.0 mm 0.00 in0.0 mm 0.00 in0.0 mm
02:15 PM 55.9°F13.3°C 32.0°F0.0°C 40% 2.0 mph NE3.2 kmh NE -- 29.81 in1009.5 mb 0.00 in0.0 mm 0.00 in0.0 mm 0.00 in0.0 mm
02:20 PM 55.9°F13.3°C 31.3°F-0.4°C 39% 6.0 mph S9.7 kmh S 21.0 mph33.8 kmh 29.82 in1009.8 mb 0.00 in0.0 mm 0.00 in0.0 mm 0.00 in0.0 mm
02:25 PM 56.1°F13.4°C 32.2°F0.1°C 40% 3.0 mph W4.8 kmh W -- 29.81 in1009.5 mb 0.00 in0.0 mm 0.00 in0.0 mm 0.00 in0.0 mm
02:30 PM 56.1°F13.4°C 31.5°F-0.3°C 39% 3.0 mph NNW4.8 kmh NNW -- 29.81 in1009.5 mb 0.00 in0.0 mm 0.00 in0.0 mm 0.00 in0.0 mm
02:35 PM 56.2°F13.4°C 31.5°F-0.3°C 39% 6.0 mph S9.7 kmh S -- 29.81 in1009.5 mb 0.00 in0.0 mm 0.00 in0.0 mm 0.00 in0.0 mm
02:40 PM 56.2°F13.4°C 31.5°F-0.3°C 39% Calm Calm -- 29.81 in1009.5 mb 0.00 in0.0 mm 0.00 in0.0 mm 0.00 in0.0 mm
02:45 PM 56.2°F13.4°C 31.5°F-0.3°C 39% 5.0 mph W8.0 kmh W 10.0 mph16.1 kmh 29.81 in1009.5 mb 0.00 in0.0 mm 0.00 in0.0 mm 0.00 in0.0 mm
02:50 PM 56.1°F13.4°C 31.5°F-0.3°C 39% 3.0 mph NNE4.8 kmh NNE -- 29.81 in1009.5 mb 0.00 in0.0 mm 0.00 in0.0 mm 0.00 in0.0 mm
02:55 PM 56.0°F13.3°C 30.7°F-0.7°C 38% Calm Calm -- 29.81 in1009.5 mb 0.00 in0.0 mm 0.00 in0.0 mm 0.00 in0.0 mm
03:00 PM 56.1°F13.4°C 31.5°F-0.3°C 39% 2.0 mph NE3.2 kmh NE -- 29.81 in1009.5 mb 0.00 in0.0 mm 0.00 in0.0 mm 0.00 in0.0 mm
03:05 PM 56.1°F13.4°C 31.5°F-0.3°C 39% 3.0 mph WSW4.8 kmh WSW -- 29.81 in1009.5 mb 0.00 in0.0 mm 0.00 in0.0 mm 0.00 in0.0 mm
03:10 PM 56.2°F13.4°C 31.5°F-0.3°C 39% Calm Calm 9.0 mph14.5 kmh 29.81 in1009.5 mb 0.00 in0.0 mm 0.00 in0.0 mm 0.00 in0.0 mm
03:15 PM 56.4°F13.6°C 31.1°F-0.5°C 38% 5.0 mph S8.0 kmh S -- 29.81 in1009.5 mb 0.00 in0.0 mm 0.00 in0.0 mm 0.00 in0.0 mm
03:20 PM 56.4°F13.6°C 31.8°F-0.1°C 39% 1.0 mph ENE1.6 kmh ENE -- 29.81 in1009.5 mb 0.00 in0.0 mm 0.00 in0.0 mm 0.00 in0.0 mm
03:25 PM 56.5°F13.6°C 31.1°F-0.5°C 38% 3.0 mph N4.8 kmh N -- 29.81 in1009.5 mb 0.00 in0.0 mm 0.00 in0.0 mm 0.00 in0.0 mm
03:30 PM 56.4°F13.6°C 31.8°F-0.1°C 39% 2.0 mph NE3.2 kmh NE -- 29.81 in1009.5 mb 0.00 in0.0 mm 0.00 in0.0 mm 0.00 in0.0 mm
03:35 PM 56.2°F13.4°C 30.9°F-0.6°C 38% Calm Calm 15.0 mph24.1 kmh 29.81 in1009.5 mb 0.00 in0.0 mm 0.00 in0.0 mm 0.00 in0.0 mm
03:40 PM 56.4°F13.6°C 31.8°F-0.1°C 39% 3.0 mph N4.8 kmh N -- 29.81 in1009.5 mb 0.00 in0.0 mm 0.00 in0.0 mm 0.00 in0.0 mm
03:45 PM 56.3°F13.5°C 31.6°F-0.2°C 39% 6.0 mph ENE9.7 kmh ENE -- 29.80 in1009.1 mb 0.00 in0.0 mm 0.00 in0.0 mm 0.00 in0.0 mm
03:50 PM 56.0°F13.3°C 31.3°F-0.4°C 39% 1.0 mph ESE1.6 kmh ESE -- 29.80 in1009.1 mb 0.00 in0.0 mm 0.00 in0.0 mm 0.00 in0.0 mm
03:55 PM 56.0°F13.3°C 32.0°F0.0°C 40% 4.0 mph NNE6.4 kmh NNE -- 29.80 in1009.1 mb 0.00 in0.0 mm 0.00 in0.0 mm 0.00 in0.0 mm
04:00 PM 55.9°F13.3°C 32.0°F0.0°C 40% 1.0 mph E1.6 kmh E 7.0 mph11.3 kmh 29.80 in1009.1 mb 0.00 in0.0 mm 0.00 in0.0 mm 0.00 in0.0 mm
04:05 PM 55.8°F13.2°C 31.8°F-0.1°C 40% 2.0 mph NE3.2 kmh NE -- 29.80 in1009.1 mb 0.00 in0.0 mm 0.00 in0.0 mm 0.00 in0.0 mm
04:10 PM 55.6°F13.1°C 31.6°F-0.2°C 40% 1.0 mph E1.6 kmh E -- 29.80 in1009.1 mb 0.00 in0.0 mm 0.00 in0.0 mm 0.00 in0.0 mm
04:15 PM 55.6°F13.1°C 31.6°F-0.2°C 40% 4.0 mph W6.4 kmh W -- 29.80 in1009.1 mb 0.00 in0.0 mm 0.00 in0.0 mm 0.00 in0.0 mm
04:20 PM 55.7°F13.2°C 31.8°F-0.1°C 40% 1.0 mph NE1.6 kmh NE -- 29.80 in1009.1 mb 0.00 in0.0 mm 0.00 in0.0 mm 0.00 in0.0 mm
04:25 PM 55.8°F13.2°C 31.1°F-0.5°C 39% 4.0 mph NNE6.4 kmh NNE 8.0 mph12.9 kmh 29.81 in1009.5 mb 0.00 in0.0 mm 0.00 in0.0 mm 0.00 in0.0 mm
04:30 PM 55.7°F13.2°C 31.8°F-0.1°C 40% 5.0 mph ENE8.0 kmh ENE -- 29.80 in1009.1 mb 0.00 in0.0 mm 0.00 in0.0 mm 0.00 in0.0 mm
04:35 PM 55.6°F13.1°C 31.6°F-0.2°C 40% 1.0 mph N1.6 kmh N -- 29.80 in1009.1 mb 0.00 in0.0 mm 0.00 in0.0 mm 0.00 in0.0 mm
04:40 PM 55.6°F13.1°C 31.6°F-0.2°C 40% 1.0 mph SW1.6 kmh SW -- 29.80 in1009.1 mb 0.00 in0.0 mm 0.00 in0.0 mm 0.00 in0.0 mm
04:45 PM 55.7°F13.2°C 31.8°F-0.1°C 40% 2.0 mph SE3.2 kmh SE -- 29.80 in1009.1 mb 0.00 in0.0 mm 0.00 in0.0 mm 0.00 in0.0 mm
04:50 PM 55.7°F13.2°C 31.8°F-0.1°C 40% 1.0 mph WSW1.6 kmh WSW 4.0 mph6.4 kmh 29.80 in1009.1 mb 0.00 in0.0 mm 0.00 in0.0 mm 0.00 in0.0 mm
04:55 PM 55.8°F13.2°C 31.8°F-0.1°C 40% Calm Calm -- 29.80 in1009.1 mb 0.00 in0.0 mm 0.00 in0.0 mm 0.00 in0.0 mm
05:00 PM 55.9°F13.3°C 32.0°F0.0°C 40% Calm Calm -- 29.80 in1009.1 mb 0.00 in0.0 mm 0.00 in0.0 mm 0.00 in0.0 mm
05:05 PM 55.7°F13.2°C 31.8°F-0.1°C 40% 2.0 mph NE3.2 kmh NE -- 29.80 in1009.1 mb 0.00 in0.0 mm 0.00 in0.0 mm 0.00 in0.0 mm
05:10 PM 55.6°F13.1°C 32.2°F0.1°C 41% 1.0 mph NE1.6 kmh NE -- 29.80 in1009.1 mb 0.00 in0.0 mm 0.00 in0.0 mm 0.00 in0.0 mm
05:15 PM 55.7°F13.2°C 31.8°F-0.1°C 40% 2.0 mph NE3.2 kmh NE 6.0 mph9.7 kmh 29.80 in1009.1 mb 0.00 in0.0 mm 0.00 in0.0 mm 0.00 in0.0 mm
05:20 PM 55.8°F13.2°C 31.8°F-0.1°C 40% 4.0 mph E6.4 kmh E -- 29.80 in1009.1 mb 0.00 in0.0 mm 0.00 in0.0 mm 0.00 in0.0 mm
05:25 PM 55.8°F13.2°C 31.8°F-0.1°C 40% 3.0 mph NE4.8 kmh NE -- 29.80 in1009.1 mb 0.00 in0.0 mm 0.00 in0.0 mm 0.00 in0.0 mm
05:30 PM 55.8°F13.2°C 31.8°F-0.1°C 40% 2.0 mph E3.2 kmh E -- 29.80 in1009.1 mb 0.00 in0.0 mm 0.00 in0.0 mm 0.00 in0.0 mm
05:35 PM 55.7°F13.2°C 31.8°F-0.1°C 40% 1.0 mph ENE1.6 kmh ENE -- 29.80 in1009.1 mb 0.00 in0.0 mm 0.00 in0.0 mm 0.00 in0.0 mm
05:40 PM 55.8°F13.2°C 31.8°F-0.1°C 40% 4.0 mph ENE6.4 kmh ENE 5.0 mph8.0 kmh 29.79 in1008.8 mb 0.00 in0.0 mm 0.00 in0.0 mm 0.00 in0.0 mm
05:45 PM 55.8°F13.2°C 31.8°F-0.1°C 40% 4.0 mph ENE6.4 kmh ENE -- 29.79 in1008.8 mb 0.00 in0.0 mm 0.00 in0.0 mm 0.00 in0.0 mm
05:50 PM 55.9°F13.3°C 32.0°F0.0°C 40% 3.0 mph ENE4.8 kmh ENE -- 29.80 in1009.1 mb 0.00 in0.0 mm 0.00 in0.0 mm 0.00 in0.0 mm
05:55 PM 56.2°F13.4°C 33.3°F0.7°C 42% Calm Calm -- 29.80 in1009.1 mb 0.00 in0.0 mm 0.00 in0.0 mm 0.00 in0.0 mm
06:00 PM 56.4°F13.6°C 31.8°F-0.1°C 39% 2.0 mph SE3.2 kmh SE -- 29.80 in1009.1 mb 0.00 in0.0 mm 0.00 in0.0 mm 0.00 in0.0 mm
06:05 PM 56.6°F13.7°C 32.0°F0.0°C 39% 1.0 mph E1.6 kmh E 5.0 mph8.0 kmh 29.80 in1009.1 mb 0.00 in0.0 mm 0.00 in0.0 mm 0.00 in0.0 mm
06:10 PM 56.6°F13.7°C 32.0°F0.0°C 39% 3.0 mph SW4.8 kmh SW -- 29.80 in1009.1 mb 0.00 in0.0 mm 0.00 in0.0 mm 0.00 in0.0 mm
06:15 PM 56.6°F13.7°C 32.0°F0.0°C 39% 2.0 mph SSW3.2 kmh SSW -- 29.80 in1009.1 mb 0.00 in0.0 mm 0.00 in0.0 mm 0.00 in0.0 mm
06:20 PM 56.4°F13.6°C 31.8°F-0.1°C 39% 3.0 mph SW4.8 kmh SW -- 29.79 in1008.8 mb 0.00 in0.0 mm 0.00 in0.0 mm 0.00 in0.0 mm
06:25 PM 56.1°F13.4°C 32.2°F0.1°C 40% 4.0 mph SW6.4 kmh SW -- 29.79 in1008.8 mb 0.00 in0.0 mm 0.00 in0.0 mm 0.00 in0.0 mm
06:30 PM 55.9°F13.3°C 33.3°F0.7°C 42% 2.0 mph SW3.2 kmh SW 6.0 mph9.7 kmh 29.79 in1008.8 mb 0.00 in0.0 mm 0.00 in0.0 mm 0.00 in0.0 mm
06:35 PM 55.7°F13.2°C 32.4°F0.2°C 41% 1.0 mph SW1.6 kmh SW -- 29.79 in1008.8 mb 0.00 in0.0 mm 0.00 in0.0 mm 0.00 in0.0 mm
06:40 PM 55.6°F13.1°C 32.2°F0.1°C 41% 1.0 mph SW1.6 kmh SW -- 29.79 in1008.8 mb 0.00 in0.0 mm 0.00 in0.0 mm 0.00 in0.0 mm
06:45 PM 55.3°F12.9°C 32.5°F0.3°C 42% 4.0 mph SW6.4 kmh SW -- 29.79 in1008.8 mb 0.00 in0.0 mm 0.00 in0.0 mm 0.00 in0.0 mm
06:50 PM 55.3°F12.9°C 32.0°F0.0°C 41% Calm Calm -- 29.79 in1008.8 mb 0.00 in0.0 mm 0.00 in0.0 mm 0.00 in0.0 mm
06:55 PM 54.9°F12.7°C 32.7°F0.4°C 43% 2.0 mph SW3.2 kmh SW 4.0 mph6.4 kmh 29.79 in1008.8 mb 0.00 in0.0 mm 0.00 in0.0 mm 0.00 in0.0 mm
07:00 PM 53.3°F11.8°C 33.6°F0.9°C 47% 2.0 mph SW3.2 kmh SW -- 29.79 in1008.8 mb 0.00 in0.0 mm 0.00 in0.0 mm 0.00 in0.0 mm
07:05 PM 52.9°F11.6°C 33.3°F0.7°C 47% 3.0 mph WSW4.8 kmh WSW -- 29.79 in1008.8 mb 0.00 in0.0 mm 0.00 in0.0 mm 0.00 in0.0 mm
07:10 PM 52.7°F11.5°C 33.6°F0.9°C 48% 2.0 mph SW3.2 kmh SW -- 29.79 in1008.8 mb 0.00 in0.0 mm 0.00 in0.0 mm 0.00 in0.0 mm
07:15 PM 52.1°F11.2°C 33.6°F0.9°C 49% 1.0 mph SW1.6 kmh SW -- 29.79 in1008.8 mb 0.00 in0.0 mm 0.00 in0.0 mm 0.00 in0.0 mm
07:20 PM 51.7°F10.9°C 33.1°F0.6°C 49% 2.0 mph SW3.2 kmh SW 4.0 mph6.4 kmh 29.79 in1008.8 mb 0.00 in0.0 mm 0.00 in0.0 mm 0.00 in0.0 mm
07:25 PM 51.4°F10.8°C 33.4°F0.8°C 50% 2.0 mph SW3.2 kmh SW -- 29.79 in1008.8 mb 0.00 in0.0 mm 0.00 in0.0 mm 0.00 in0.0 mm
07:30 PM 51.0°F10.6°C 33.1°F0.6°C 50% 2.0 mph WSW3.2 kmh WSW -- 29.79 in1008.8 mb 0.00 in0.0 mm 0.00 in0.0 mm 0.00 in0.0 mm
07:35 PM 50.2°F10.1°C 33.3°F0.7°C 52% 5.0 mph WSW8.0 kmh WSW -- 29.79 in1008.8 mb 0.00 in0.0 mm 0.00 in0.0 mm 0.00 in0.0 mm
07:40 PM 49.8°F9.9°C 33.4°F0.8°C 53% 4.0 mph WSW6.4 kmh WSW -- 29.79 in1008.8 mb 0.00 in0.0 mm 0.00 in0.0 mm 0.00 in0.0 mm
07:45 PM 49.4°F9.7°C 33.4°F0.8°C 54% 6.0 mph SW9.7 kmh SW 7.0 mph11.3 kmh 29.79 in1008.8 mb 0.00 in0.0 mm 0.00 in0.0 mm 0.00 in0.0 mm
07:50 PM 48.7°F9.3°C 33.3°F0.7°C 55% 4.0 mph SW6.4 kmh SW -- 29.79 in1008.8 mb 0.00 in0.0 mm 0.00 in0.0 mm 0.00 in0.0 mm
07:55 PM 48.1°F8.9°C 33.1°F0.6°C 56% 4.0 mph WSW6.4 kmh WSW -- 29.79 in1008.8 mb 0.00 in0.0 mm 0.00 in0.0 mm 0.00 in0.0 mm
08:00 PM 48.6°F9.2°C 33.1°F0.6°C 55% 6.0 mph WSW9.7 kmh WSW -- 29.79 in1008.8 mb 0.00 in0.0 mm 0.00 in0.0 mm 0.00 in0.0 mm
08:05 PM 48.4°F9.1°C 33.4°F0.8°C 56% 5.0 mph W8.0 kmh W -- 29.78 in1008.5 mb 0.00 in0.0 mm 0.00 in0.0 mm 0.00 in0.0 mm
08:10 PM 48.2°F9.0°C 33.6°F0.9°C 57% 6.0 mph WSW9.7 kmh WSW 8.0 mph12.9 kmh 29.78 in1008.5 mb 0.00 in0.0 mm 0.00 in0.0 mm 0.00 in0.0 mm
08:15 PM 48.1°F8.9°C 33.1°F0.6°C 56% 5.0 mph WSW8.0 kmh WSW -- 29.78 in1008.5 mb 0.00 in0.0 mm 0.00 in0.0 mm 0.00 in0.0 mm
08:20 PM 47.8°F8.8°C 33.4°F0.8°C 57% 6.0 mph WSW9.7 kmh WSW -- 29.78 in1008.5 mb 0.00 in0.0 mm 0.00 in0.0 mm 0.00 in0.0 mm
08:25 PM 47.9°F8.8°C 33.4°F0.8°C 57% 6.0 mph WSW9.7 kmh WSW -- 29.78 in1008.5 mb 0.00 in0.0 mm 0.00 in0.0 mm 0.00 in0.0 mm
08:30 PM 47.5°F8.6°C 33.4°F0.8°C 58% 6.0 mph WSW9.7 kmh WSW -- 29.78 in1008.5 mb 0.00 in0.0 mm 0.00 in0.0 mm 0.00 in0.0 mm
08:35 PM 47.5°F8.6°C 33.1°F0.6°C 57% 6.0 mph WSW9.7 kmh WSW 8.0 mph12.9 kmh 29.78 in1008.5 mb 0.00 in0.0 mm 0.00 in0.0 mm 0.00 in0.0 mm
08:40 PM 47.8°F8.8°C 33.4°F0.8°C 57% 5.0 mph SW8.0 kmh SW -- 29.78 in1008.5 mb 0.00 in0.0 mm 0.00 in0.0 mm 0.00 in0.0 mm
08:45 PM 47.9°F8.8°C 33.4°F0.8°C 57% 5.0 mph WSW8.0 kmh WSW -- 29.78 in1008.5 mb 0.00 in0.0 mm 0.00 in0.0 mm 0.00 in0.0 mm
08:50 PM 47.7°F8.7°C 33.3°F0.7°C 57% 5.0 mph WSW8.0 kmh WSW -- 29.78 in1008.5 mb 0.00 in0.0 mm 0.00 in0.0 mm 0.00 in0.0 mm
08:55 PM 49.0°F9.4°C 33.4°F0.8°C 55% 4.0 mph WSW6.4 kmh WSW -- 29.78 in1008.5 mb 0.00 in0.0 mm 0.00 in0.0 mm 0.00 in0.0 mm
09:00 PM 48.7°F9.3°C 33.3°F0.7°C 55% 5.0 mph WSW8.0 kmh WSW 7.0 mph11.3 kmh 29.78 in1008.5 mb 0.00 in0.0 mm 0.00 in0.0 mm 0.00 in0.0 mm
09:05 PM 47.9°F8.8°C 33.4°F0.8°C 57% 5.0 mph WSW8.0 kmh WSW -- 29.78 in1008.5 mb 0.00 in0.0 mm 0.00 in0.0 mm 0.00 in0.0 mm
09:10 PM 48.2°F9.0°C 33.6°F0.9°C 57% 5.0 mph SW8.0 kmh SW -- 29.78 in1008.5 mb 0.00 in0.0 mm 0.00 in0.0 mm 0.00 in0.0 mm
09:15 PM 47.7°F8.7°C 33.6°F0.9°C 58% 4.0 mph WSW6.4 kmh WSW -- 29.78 in1008.5 mb 0.00 in0.0 mm 0.00 in0.0 mm 0.00 in0.0 mm
09:20 PM 48.0°F8.9°C 34.0°F1.1°C 58% 4.0 mph WSW6.4 kmh WSW -- 29.78 in1008.5 mb 0.00 in0.0 mm 0.00 in0.0 mm 0.00 in0.0 mm
09:25 PM 47.6°F8.7°C 34.0°F1.1°C 59% 4.0 mph WSW6.4 kmh WSW 6.0 mph9.7 kmh 29.77 in1008.1 mb 0.00 in0.0 mm 0.00 in0.0 mm 0.00 in0.0 mm
09:30 PM 47.3°F8.5°C 33.6°F0.9°C 59% 5.0 mph WSW8.0 kmh WSW -- 29.77 in1008.1 mb 0.00 in0.0 mm 0.00 in0.0 mm 0.00 in0.0 mm
09:35 PM 47.4°F8.6°C 33.8°F1.0°C 59% 4.0 mph WSW6.4 kmh WSW -- 29.78 in1008.5 mb 0.00 in0.0 mm 0.00 in0.0 mm 0.00 in0.0 mm
09:40 PM 47.1°F8.4°C 34.0°F1.1°C 60% 2.0 mph WSW3.2 kmh WSW -- 29.77 in1008.1 mb 0.00 in0.0 mm 0.00 in0.0 mm 0.00 in0.0 mm
09:45 PM 47.0°F8.3°C 34.2°F1.2°C 61% 3.0 mph WSW4.8 kmh WSW -- 29.77 in1008.1 mb 0.00 in0.0 mm 0.00 in0.0 mm 0.00 in0.0 mm
09:50 PM 46.5°F8.1°C 33.8°F1.0°C 61% 6.0 mph WSW9.7 kmh WSW 6.0 mph9.7 kmh 29.78 in1008.5 mb 0.00 in0.0 mm 0.00 in0.0 mm 0.00 in0.0 mm
09:55 PM 45.8°F7.7°C 34.0°F1.1°C 63% 4.0 mph SW6.4 kmh SW -- 29.78 in1008.5 mb 0.00 in0.0 mm 0.00 in0.0 mm 0.00 in0.0 mm
10:00 PM 45.7°F7.6°C 33.8°F1.0°C 63% 4.0 mph WSW6.4 kmh WSW -- 29.77 in1008.1 mb 0.00 in0.0 mm 0.00 in0.0 mm 0.00 in0.0 mm
10:05 PM 46.3°F7.9°C 34.0°F1.1°C 62% 6.0 mph WSW9.7 kmh WSW -- 29.77 in1008.1 mb 0.00 in0.0 mm 0.00 in0.0 mm 0.00 in0.0 mm
10:10 PM 46.0°F7.8°C 33.8°F1.0°C 62% 5.0 mph SW8.0 kmh SW -- 29.77 in1008.1 mb 0.00 in0.0 mm 0.00 in0.0 mm 0.00 in0.0 mm
10:15 PM 45.2°F7.3°C 33.3°F0.7°C 63% 5.0 mph WSW8.0 kmh WSW 8.0 mph12.9 kmh 29.77 in1008.1 mb 0.00 in0.0 mm 0.00 in0.0 mm 0.00 in0.0 mm
10:20 PM 45.3°F7.4°C 33.8°F1.0°C 64% 4.0 mph WSW6.4 kmh WSW -- 29.77 in1008.1 mb 0.00 in0.0 mm 0.00 in0.0 mm 0.00 in0.0 mm
10:25 PM 45.7°F7.6°C 33.8°F1.0°C 63% 6.0 mph WSW9.7 kmh WSW -- 29.77 in1008.1 mb 0.00 in0.0 mm 0.00 in0.0 mm 0.00 in0.0 mm
10:30 PM 45.2°F7.3°C 33.6°F0.9°C 64% 7.0 mph WSW11.3 kmh WSW -- 29.77 in1008.1 mb 0.00 in0.0 mm 0.00 in0.0 mm 0.00 in0.0 mm
10:35 PM 45.1°F7.3°C 33.6°F0.9°C 64% 6.0 mph WSW9.7 kmh WSW -- 29.77 in1008.1 mb 0.00 in0.0 mm 0.00 in0.0 mm 0.00 in0.0 mm
10:40 PM 44.6°F7.0°C 34.0°F1.1°C 66% 4.0 mph SW6.4 kmh SW 8.0 mph12.9 kmh 29.77 in1008.1 mb 0.00 in0.0 mm 0.00 in0.0 mm 0.00 in0.0 mm
10:45 PM 44.7°F7.1°C 34.2°F1.2°C 66% 5.0 mph WSW8.0 kmh WSW -- 29.77 in1008.1 mb 0.00 in0.0 mm 0.00 in0.0 mm 0.00 in0.0 mm
10:50 PM 44.9°F7.2°C 34.0°F1.1°C 65% 4.0 mph WSW6.4 kmh WSW -- 29.77 in1008.1 mb 0.00 in0.0 mm 0.00 in0.0 mm 0.00 in0.0 mm
10:55 PM 44.9°F7.2°C 34.0°F1.1°C 65% 4.0 mph WSW6.4 kmh WSW -- 29.77 in1008.1 mb 0.00 in0.0 mm 0.00 in0.0 mm 0.00 in0.0 mm
11:00 PM 44.5°F6.9°C 33.8°F1.0°C 66% 6.0 mph WSW9.7 kmh WSW -- 29.77 in1008.1 mb 0.00 in0.0 mm 0.00 in0.0 mm 0.00 in0.0 mm
11:05 PM 44.8°F7.1°C 33.8°F1.0°C 65% 6.0 mph WSW9.7 kmh WSW 7.0 mph11.3 kmh 29.77 in1008.1 mb 0.00 in0.0 mm 0.00 in0.0 mm 0.00 in0.0 mm
11:10 PM 44.1°F6.7°C 33.4°F0.8°C 66% 6.0 mph WSW9.7 kmh WSW -- 29.77 in1008.1 mb 0.00 in0.0 mm 0.00 in0.0 mm 0.00 in0.0 mm
11:15 PM 44.8°F7.1°C 33.8°F1.0°C 65% 4.0 mph WSW6.4 kmh WSW -- 29.77 in1008.1 mb 0.00 in0.0 mm 0.00 in0.0 mm 0.00 in0.0 mm
11:20 PM 44.2°F6.8°C 33.6°F0.9°C 66% 6.0 mph WSW9.7 kmh WSW -- 29.77 in1008.1 mb 0.00 in0.0 mm 0.00 in0.0 mm 0.00 in0.0 mm
11:25 PM 44.6°F7.0°C 34.0°F1.1°C 66% 6.0 mph WSW9.7 kmh WSW -- 29.76 in1007.8 mb 0.00 in0.0 mm 0.00 in0.0 mm 0.00 in0.0 mm
11:30 PM 45.0°F7.2°C 34.0°F1.1°C 65% 5.0 mph WSW8.0 kmh WSW 9.0 mph14.5 kmh 29.76 in1007.8 mb 0.00 in0.0 mm 0.00 in0.0 mm 0.00 in0.0 mm
11:35 PM 44.2°F6.8°C 34.0°F1.1°C 67% 5.0 mph WSW8.0 kmh WSW -- 29.76 in1007.8 mb 0.00 in0.0 mm 0.00 in0.0 mm 0.00 in0.0 mm
11:40 PM 44.5°F6.9°C 34.2°F1.2°C 67% 6.0 mph SW9.7 kmh SW -- 29.76 in1007.8 mb 0.00 in0.0 mm 0.00 in0.0 mm 0.00 in0.0 mm
11:45 PM 44.6°F7.0°C 34.3°F1.3°C 67% 5.0 mph WSW8.0 kmh WSW -- 29.76 in1007.8 mb 0.00 in0.0 mm 0.00 in0.0 mm 0.00 in0.0 mm
11:50 PM 45.2°F7.3°C 34.2°F1.2°C 65% 5.0 mph WSW8.0 kmh WSW -- 29.76 in1007.8 mb 0.00 in0.0 mm 0.00 in0.0 mm 0.00 in0.0 mm
11:55 PM 44.9°F7.2°C 34.0°F1.1°C 65% 5.0 mph W8.0 kmh W 8.0 mph12.9 kmh 29.76 in1007.8 mb 0.00 in0.0 mm 0.00 in0.0 mm 0.00 in0.0 mm